Time;durP1;ratioP1;P1;durP2;ratioP2;P2;SDS_P1;SDS_P2;PMS_P1;PMS_P2;Temp;Humidity;BMP_temperature;BMP_pressure;BME280_temperature;BME280_humidity;BME280_pressure;Samples;Min_cycle;Max_cycle;Signal;HPM_P1;HPM_P2
2024/04/07 00:02:44;;;;;;;14.20;10.30;;;;;;;12.49;77.84;100433.06;129626;1265;128397;-74
2024/04/07 00:05:53;;;;;;;12.20;9.70;;;;;;;12.43;77.53;100436.38;129917;1263;114731;-74
2024/04/07 00:08:55;;;;;;;12.60;9.30;;;;;;;12.39;77.50;100438.45;129960;1263;114769;-73
2024/04/07 00:11:56;;;;;;;12.20;8.80;;;;;;;12.34;78.04;100445.14;129867;1264;114813;-72
2024/04/07 00:14:58;;;;;;;12.00;9.10;;;;;;;12.30;78.66;100437.48;129886;1264;114833;-71
2024/04/07 00:18:00;;;;;;;14.90;9.40;;;;;;;12.26;78.43;100436.98;129767;1265;114826;-71
2024/04/07 00:21:02;;;;;;;12.60;9.80;;;;;;;12.24;78.70;100438.18;129772;1264;114686;-72
2024/04/07 00:24:04;;;;;;;13.80;9.20;;;;;;;12.22;78.65;100436.48;129892;1264;115475;-72
2024/04/07 00:27:06;;;;;;;12.20;8.70;;;;;;;12.20;78.48;100433.38;129677;1259;114892;-72
2024/04/07 00:30:08;;;;;;;12.60;8.60;;;;;;;12.15;78.54;100431.46;129742;1265;114732;-73
2024/04/07 00:33:10;;;;;;;15.10;9.30;;;;;;;12.10;78.32;100434.79;129828;1259;115405;-74
2024/04/07 00:36:12;;;;;;;12.60;9.60;;;;;;;12.04;78.47;100437.96;129827;1264;114826;-72
2024/04/07 00:39:13;;;;;;;12.00;8.40;;;;;;;11.98;78.38;100442.23;129819;1259;114783;-68
2024/04/07 00:42:18;;;;;;;11.20;6.30;;;;;;;11.92;78.80;100435.70;129809;1265;114778;-64
2024/04/07 00:45:20;;;;;;;11.70;6.90;;;;;;;11.90;79.09;100438.54;129809;1263;128580;-65
2024/04/07 00:48:22;;;;;;;9.00;6.20;;;;;;;11.85;79.31;100437.66;129720;1259;114925;-71
2024/04/07 00:51:24;;;;;;;11.60;7.80;;;;;;;11.80;79.74;100439.89;129853;1274;114920;-71
2024/04/07 00:54:26;;;;;;;8.10;6.10;;;;;;;11.78;79.76;100437.00;129769;1264;114761;-72
2024/04/07 00:57:29;;;;;;;9.90;6.50;;;;;;;11.76;80.25;100434.02;129756;1259;115140;-71
2024/04/07 01:00:31;;;;;;;11.10;6.00;;;;;;;11.76;80.84;100432.08;129708;1263;114814;-68
2024/04/07 01:03:33;;;;;;;11.70;7.20;;;;;;;11.75;80.80;100432.86;130040;1263;114812;-70
2024/04/07 01:06:35;;;;;;;11.70;6.50;;;;;;;11.73;80.82;100429.02;129527;1275;128690;-71
2024/04/07 01:09:37;;;;;;;10.70;6.40;;;;;;;11.73;81.09;100426.73;129695;1265;114772;-70
2024/04/07 01:12:39;;;;;;;10.70;7.80;;;;;;;11.72;81.50;100432.46;129752;1261;114756;-72
2024/04/07 01:15:41;;;;;;;10.90;6.60;;;;;;;11.72;81.30;100432.30;129429;1260;114754;-64
2024/04/07 01:18:42;;;;;;;9.50;6.50;;;;;;;11.71;81.90;100427.14;129776;1259;115206;-69
2024/04/07 01:21:44;;;;;;;11.50;6.40;;;;;;;11.73;82.26;100427.08;129897;1259;114772;-70
2024/04/07 01:24:46;;;;;;;7.90;5.60;;;;;;;11.74;82.27;100423.79;129784;1264;114745;-70
2024/04/07 01:27:53;;;;;;;7.80;6.50;;;;;;;11.73;82.64;100416.85;129715;1258;114860;-66
2024/04/07 01:30:55;;;;;;;8.10;5.70;;;;;;;11.74;82.91;100417.69;129789;1265;114975;-65
2024/04/07 01:33:57;;;;;;;9.40;6.70;;;;;;;11.75;82.84;100412.60;129730;1264;115433;-67
2024/04/07 01:36:58;;;;;;;8.10;5.80;;;;;;;11.75;83.11;100412.08;129713;1259;114844;-67
2024/04/07 01:40:02;;;;;;;11.30;7.20;;;;;;;11.76;83.14;100410.23;129716;1265;114837;-71
2024/04/07 01:43:04;;;;;;;8.30;6.20;;;;;;;11.76;82.87;100409.18;129711;1259;114746;-66
2024/04/07 01:46:06;;;;;;;9.50;7.10;;;;;;;11.76;82.99;100402.02;129675;1263;114951;-70
2024/04/07 01:49:08;;;;;;;11.60;7.10;;;;;;;11.76;83.20;100402.52;129804;1281;114761;-64
2024/04/07 01:52:10;;;;;;;8.60;6.60;;;;;;;11.77;83.47;100401.42;129730;1275;114758;-71
2024/04/07 01:55:11;;;;;;;9.50;6.00;;;;;;;11.76;83.49;100398.25;129684;1264;114805;-71
2024/04/07 01:58:13;;;;;;;9.40;5.40;;;;;;;11.72;83.77;100392.05;129446;1264;114842;-69
2024/04/07 02:01:16;;;;;;;10.00;7.30;;;;;;;11.74;83.67;100396.75;129713;1274;114667;-71
2024/04/07 02:04:19;;;;;;;10.30;7.40;;;;;;;11.72;84.03;100394.69;129739;1264;115283;-72
2024/04/07 02:07:21;;;;;;;9.70;6.30;;;;;;;11.71;83.81;100389.94;129669;1264;114886;-69
2024/04/07 02:10:23;;;;;;;11.50;7.60;;;;;;;11.68;84.05;100390.95;129585;1264;204488;-67
2024/04/07 02:13:25;;;;;;;10.40;7.00;;;;;;;11.68;83.75;100394.75;129577;1259;114910;-66
2024/04/07 02:16:27;;;;;;;9.20;7.10;;;;;;;11.66;83.84;100391.08;129822;1263;114842;-64
2024/04/07 02:19:28;;;;;;;7.70;5.30;;;;;;;11.64;83.96;100389.05;129722;1264;114790;-70
2024/04/07 02:22:30;;;;;;;8.40;6.20;;;;;;;11.62;84.33;100387.87;129748;1259;114835;-65
2024/04/07 02:25:32;;;;;;;10.00;6.30;;;;;;;11.61;84.14;100387.75;129698;1265;114832;-69
2024/04/07 02:28:33;;;;;;;11.00;7.50;;;;;;;11.60;84.34;100390.14;129767;1267;114821;-71
2024/04/07 02:31:35;;;;;;;11.40;7.10;;;;;;;11.57;84.08;100391.58;129775;1265;128079;-69
2024/04/07 02:34:37;;;;;;;11.70;7.40;;;;;;;11.55;84.40;100391.48;129754;1264;114815;-66
2024/04/07 02:37:38;;;;;;;8.70;6.60;;;;;;;11.52;84.32;100388.75;129762;1259;115534;-68
2024/04/07 02:40:42;;;;;;;8.10;6.10;;;;;;;11.48;84.20;100387.35;129489;1268;114887;-71
2024/04/07 02:43:44;;;;;;;9.10;6.60;;;;;;;11.45;84.25;100387.02;129615;1265;114884;-71
2024/04/07 02:50:07;;;;;;;11.40;7.00;;;;;;;11.38;84.53;100396.25;129655;1259;128521;-70
2024/04/07 02:53:08;;;;;;;11.60;6.70;;;;;;;11.35;84.15;100402.32;129648;1259;115150;-65
2024/04/07 02:56:11;;;;;;;9.20;5.80;;;;;;;11.31;84.69;100400.40;129738;1259;114776;-65
2024/04/07 02:59:13;;;;;;;8.60;6.30;;;;;;;11.26;84.83;100396.70;129480;1265;115168;-66
2024/04/07 03:02:16;;;;;;;9.30;6.50;;;;;;;11.22;84.85;100399.08;129675;1267;115209;-70
2024/04/07 03:05:17;;;;;;;8.20;6.30;;;;;;;11.17;84.99;100401.98;129876;1274;114805;-70
2024/04/07 03:08:20;;;;;;;10.00;6.80;;;;;;;11.12;85.17;100407.96;129532;1276;114920;-69
2024/04/07 03:11:22;;;;;;;10.20;7.30;;;;;;;11.07;84.74;100401.06;129659;1281;114853;-65
2024/04/07 03:14:24;;;;;;;8.60;6.30;;;;;;;11.01;84.47;100398.84;129765;1265;114812;-71
2024/04/07 03:17:25;;;;;;;12.70;7.30;;;;;;;10.95;84.27;100397.20;129484;1264;115019;-70
2024/04/07 03:20:27;;;;;;;10.70;7.40;;;;;;;10.89;84.72;100396.58;129728;1263;114745;-71
2024/04/07 03:23:30;;;;;;;8.20;6.10;;;;;;;10.85;84.75;100400.00;129877;1272;114836;-71
2024/04/07 03:26:32;;;;;;;13.00;7.30;;;;;;;10.78;84.54;100403.39;129619;1268;114889;-72
2024/04/07 03:29:34;;;;;;;9.90;7.10;;;;;;;10.70;84.32;100402.14;129745;1264;114893;-71
2024/04/07 03:32:35;;;;;;;8.80;6.80;;;;;;;10.63;84.53;100395.00;129794;1274;114785;-68
2024/04/07 03:35:37;;;;;;;10.10;7.10;;;;;;;10.57;84.65;100392.59;129521;1264;127732;-65
2024/04/07 03:38:39;;;;;;;9.00;6.40;;;;;;;10.54;85.28;100390.07;129812;1263;114795;-67
2024/04/07 03:41:41;;;;;;;9.20;7.00;;;;;;;10.54;85.71;100388.83;129799;1259;115299;-68
2024/04/07 03:44:43;;;;;;;8.60;6.30;;;;;;;10.52;85.29;100391.03;129732;1265;114841;-67
2024/04/07 03:47:45;;;;;;;8.80;5.80;;;;;;;10.48;85.30;100394.81;129720;1274;114834;-67
2024/04/07 03:50:46;;;;;;;10.00;6.80;;;;;;;10.43;85.72;100395.90;129772;1263;115236;-67
2024/04/07 03:53:48;;;;;;;8.40;5.80;;;;;;;10.42;86.03;100395.28;129534;1259;114878;-66
2024/04/07 03:56:50;;;;;;;9.80;6.20;;;;;;;10.40;86.41;100396.77;129739;1264;114985;-65
2024/04/07 03:59:52;;;;;;;11.40;7.00;;;;;;;10.40;86.48;100397.52;129719;1259;114806;-70
2024/04/07 04:02:54;;;;;;;9.10;5.70;;;;;;;10.40;86.58;100391.96;129776;1272;114811;-70
2024/04/07 04:05:56;;;;;;;8.50;6.40;;;;;;;10.40;86.85;100395.17;129722;1260;114860;-66
2024/04/07 04:08:58;;;;;;;8.60;4.60;;;;;;;10.39;87.10;100391.84;129722;1265;115326;-70
2024/04/07 04:11:59;;;;;;;7.80;5.90;;;;;;;10.39;87.28;100389.16;129586;1264;114939;-64
2024/04/07 04:15:01;;;;;;;9.30;5.80;;;;;;;10.38;87.47;100389.02;129684;1265;114752;-66
2024/04/07 04:18:05;;;;;;;5.70;4.50;;;;;;;10.38;87.71;100386.52;129767;1263;114794;-65
2024/04/07 04:21:08;;;;;;;8.00;5.60;;;;;;;10.39;87.55;100390.22;129485;1260;127890;-65
2024/04/07 04:24:10;;;;;;;7.90;5.60;;;;;;;10.40;88.14;100385.36;129686;1272;114764;-69
2024/04/07 04:27:11;;;;;;;7.70;5.30;;;;;;;10.42;88.34;100388.46;129759;1263;114774;-69
2024/04/07 04:30:13;;;;;;;7.80;5.70;;;;;;;10.46;88.79;100387.92;129564;1264;116313;-70
2024/04/07 04:33:15;;;;;;;6.00;4.50;;;;;;;10.51;88.88;100385.55;129748;1272;114813;-70
2024/04/07 04:36:17;;;;;;;8.90;5.60;;;;;;;10.58;89.01;100383.26;129841;1277;114912;-69
2024/04/07 04:39:19;;;;;;;7.40;5.70;;;;;;;10.65;89.10;100382.92;129611;1263;114845;-66
2024/04/07 04:42:21;;;;;;;9.20;5.50;;;;;;;10.74;88.81;100383.21;129719;1274;114762;-69
2024/04/07 04:45:22;;;;;;;11.10;6.10;;;;;;;10.82;88.94;100384.44;129796;1264;114708;-67
2024/04/07 04:48:24;;;;;;;7.90;5.50;;;;;;;10.90;88.72;100380.48;129692;1265;114866;-65
2024/04/07 04:51:26;;;;;;;8.60;6.20;;;;;;;10.98;88.98;100384.38;129676;1264;114871;-65
2024/04/07 04:54:27;;;;;;;9.30;6.80;;;;;;;11.07;88.78;100391.23;129783;1272;114747;-66
2024/04/07 04:57:29;;;;;;;8.70;5.90;;;;;;;11.16;88.60;100393.81;129641;1264;114725;-68
2024/04/07 05:00:31;;;;;;;8.80;6.10;;;;;;;11.26;88.92;100402.98;129622;1272;114733;-68
2024/04/07 05:03:33;;;;;;;9.60;6.90;;;;;;;11.36;88.85;100402.30;129887;1273;114783;-71
2024/04/07 05:06:35;;;;;;;9.50;6.40;;;;;;;11.45;88.69;100398.08;129638;1282;128740;-71
2024/04/07 05:09:37;;;;;;;9.30;6.70;;;;;;;11.55;88.63;100401.30;129840;1264;115119;-65
2024/04/07 05:12:38;;;;;;;9.30;6.40;;;;;;;11.65;88.75;100400.59;129778;1281;114871;-70
2024/04/07 05:15:40;;;;;;;9.10;7.20;;;;;;;11.76;88.51;100398.77;129609;1275;114772;-71
2024/04/07 05:18:42;;;;;;;9.30;6.50;;;;;;;11.88;88.36;100402.81;129856;1265;114873;-70
2024/04/07 05:21:44;;;;;;;8.50;6.00;;;;;;;11.99;88.45;100402.58;129932;1281;114843;-70
2024/04/07 05:24:46;;;;;;;12.80;7.10;;;;;;;12.10;87.91;100405.08;129644;1271;114953;-66
2024/04/07 05:27:47;;;;;;;9.30;5.10;;;;;;;12.21;88.29;100399.29;129718;1264;114874;-66
2024/04/07 05:30:49;;;;;;;8.50;5.80;;;;;;;12.30;88.18;100395.02;129755;1275;114759;-66
2024/04/07 05:33:51;;;;;;;12.60;6.80;;;;;;;12.41;88.16;100396.02;129699;1262;114806;-70
2024/04/07 05:36:53;;;;;;;9.90;6.40;;;;;;;12.55;88.14;100393.09;129893;1263;114859;-66
2024/04/07 05:39:54;;;;;;;7.70;6.20;;;;;;;12.72;87.95;100392.14;129743;1272;114738;-72
2024/04/07 05:42:56;;;;;;;7.60;6.00;;;;;;;12.90;87.97;100396.36;129664;1269;114874;-72
2024/04/07 05:46:03;;;;;;;8.20;6.30;;;;;;;13.08;87.80;100397.23;129768;1275;114843;-65
2024/04/07 05:49:05;;;;;;;9.70;7.30;;;;;;;13.28;87.63;100393.90;129867;1272;129044;-70
2024/04/07 05:52:07;;;;;;;9.00;6.40;;;;;;;13.48;87.26;100394.96;129671;1264;115451;-70
2024/04/07 05:55:09;;;;;;;10.10;7.40;;;;;;;13.67;87.16;100393.59;129737;1273;114776;-68
2024/04/07 05:58:12;;;;;;;8.80;7.20;;;;;;;13.88;86.64;100391.45;129698;1265;114728;-69
2024/04/07 06:01:14;;;;;;;8.70;6.20;;;;;;;14.09;86.27;100387.09;129698;1263;114804;-65
2024/04/07 06:04:16;;;;;;;9.70;6.70;;;;;;;14.31;86.28;100389.45;129642;1274;114761;-70
2024/04/07 06:07:17;;;;;;;8.50;6.30;;;;;;;14.54;86.00;100389.96;129739;1263;114821;-65
2024/04/07 06:10:19;;;;;;;7.60;6.00;;;;;;;14.82;85.82;100386.19;129479;1264;127884;-66
2024/04/07 06:13:21;;;;;;;9.80;5.70;;;;;;;15.12;85.37;100379.17;130017;1272;114757;-70
2024/04/07 06:16:23;;;;;;;8.80;5.40;;;;;;;15.43;84.84;100378.77;130055;1272;115305;-65
2024/04/07 06:19:24;;;;;;;10.50;5.20;;;;;;;15.70;84.03;100383.00;129818;1264;114886;-71
2024/04/07 06:22:26;;;;;;;9.80;6.90;;;;;;;15.90;83.50;100385.23;129864;1274;114870;-71
2024/04/07 06:25:28;;;;;;;9.90;5.90;;;;;;;16.15;83.39;100384.71;129833;1260;115131;-65
2024/04/07 06:28:30;;;;;;;7.40;4.80;;;;;;;16.51;83.04;100380.19;129875;1272;114771;-69
2024/04/07 06:31:32;;;;;;;8.60;4.70;;;;;;;16.99;82.49;100382.98;129698;1264;115115;-72
2024/04/07 06:34:34;;;;;;;8.20;6.50;;;;;;;17.51;81.87;100380.29;129924;1264;114942;-66
2024/04/07 06:37:35;;;;;;;8.30;5.40;;;;;;;17.90;80.80;100383.61;129873;1275;115106;-70
2024/04/07 06:40:37;;;;;;;6.90;4.50;;;;;;;18.32;80.10;100386.85;129781;1261;114761;-66
2024/04/07 06:43:39;;;;;;;6.30;4.30;;;;;;;18.72;79.48;100388.44;129877;1272;114738;-72
2024/04/07 06:46:41;;;;;;;8.70;4.10;;;;;;;19.11;78.29;100387.23;129588;1267;114778;-73
2024/04/07 06:49:50;;;;;;;5.90;4.10;;;;;;;19.40;77.19;100389.67;129876;1263;115208;-74
2024/04/07 06:52:58;;;;;;;5.00;3.80;;;;;;;19.64;75.65;100389.10;129617;1271;127596;-73
2024/04/07 06:56:01;;;;;;;5.10;3.40;;;;;;;19.76;74.91;100394.64;129750;1272;114915;-73
2024/04/07 06:59:04;;;;;;;7.20;3.80;;;;;;;19.81;74.61;100394.70;129669;1272;114761;-72
2024/04/07 07:02:06;;;;;;;5.20;4.10;;;;;;;19.97;74.29;100391.13;130125;1264;114750;-72
2024/04/07 07:05:09;;;;;;;5.80;3.40;;;;;;;20.29;74.12;100391.45;130024;1262;115110;-72
2024/04/07 07:08:11;;;;;;;5.80;3.30;;;;;;;20.67;73.64;100391.88;129693;1263;115279;-71
2024/04/07 07:11:13;;;;;;;6.30;3.10;;;;;;;21.04;72.17;100391.84;129390;1276;114904;-68
2024/04/07 07:14:15;;;;;;;5.50;3.40;;;;;;;21.37;71.64;100392.77;129813;1264;116030;-73
2024/04/07 07:17:17;;;;;;;5.60;3.20;;;;;;;21.66;71.01;100390.74;129555;1267;115088;-72
2024/04/07 07:20:19;;;;;;;4.70;3.10;;;;;;;21.95;70.38;100391.16;129707;1261;114868;-71
2024/04/07 07:23:20;;;;;;;6.10;3.10;;;;;;;22.16;69.10;100383.31;129801;1263;114780;-72
2024/04/07 07:26:22;;;;;;;3.90;2.70;;;;;;;22.31;67.93;100380.38;129671;1261;114962;-71
2024/04/07 07:29:24;;;;;;;4.90;2.60;;;;;;;22.44;67.03;100378.27;129708;1281;114821;-71
2024/04/07 07:32:26;;;;;;;4.20;3.20;;;;;;;22.57;66.50;100377.72;129835;1270;114811;-67
2024/04/07 07:35:27;;;;;;;4.50;3.00;;;;;;;22.75;66.46;100372.59;129533;1264;127849;-72
2024/04/07 07:38:29;;;;;;;4.90;3.00;;;;;;;22.98;66.02;100371.98;129668;1261;114878;-71
2024/04/07 07:41:32;;;;;;;4.80;2.80;;;;;;;23.19;64.05;100375.02;129938;1265;114755;-72
2024/04/07 07:44:34;;;;;;;4.60;2.40;;;;;;;23.43;64.46;100372.44;129729;1265;114858;-72
2024/04/07 07:47:35;;;;;;;4.80;3.10;;;;;;;23.77;63.55;100371.23;129869;1263;114822;-71
2024/04/07 07:50:42;;;;;;;5.50;2.80;;;;;;;24.09;62.39;100366.52;129865;1265;114786;-71
2024/04/07 07:53:45;;;;;;;4.80;2.10;;;;;;;24.22;61.44;100362.71;130137;1259;114787;-70
2024/04/07 07:56:47;;;;;;;6.80;2.60;;;;;;;24.39;60.79;100355.98;129840;1281;114756;-72
2024/04/07 07:59:48;;;;;;;4.70;3.00;;;;;;;24.73;60.84;100360.56;129822;1261;115415;-70
2024/04/07 08:02:52;;;;;;;4.70;2.40;;;;;;;25.11;59.96;100368.29;129500;1261;114878;-70
2024/04/07 08:05:54;;;;;;;4.10;2.50;;;;;;;25.42;59.09;100373.77;129819;1261;114875;-70
2024/04/07 08:08:56;;;;;;;5.30;2.30;;;;;;;25.71;58.03;100373.36;129684;1261;114737;-70
2024/04/07 08:11:59;;;;;;;3.60;1.80;;;;;;;26.02;57.42;100375.79;130021;1261;114891;-70
2024/04/07 08:15:01;;;;;;;5.90;2.90;;;;;;;26.28;55.85;100374.66;129514;1264;114957;-72
2024/04/07 08:18:03;;;;;;;4.00;2.30;;;;;;;26.52;55.51;100373.69;129766;1265;114769;-70
2024/04/07 08:21:05;;;;;;;3.90;2.00;;;;;;;26.78;55.18;100374.40;129802;1273;114711;-73
2024/04/07 08:24:07;;;;;;;4.10;1.90;;;;;;;27.00;54.49;100378.89;129646;1262;114824;-72
2024/04/07 08:27:09;;;;;;;3.30;2.10;;;;;;;27.20;53.74;100371.13;129752;1273;115318;-68
2024/04/07 08:30:11;;;;;;;8.20;2.30;;;;;;;27.37;52.70;100364.30;129779;1263;114771;-72
2024/04/07 08:33:12;;;;;;;4.10;2.00;;;;;;;27.47;52.16;100363.34;129695;1263;114875;-72
2024/04/07 08:36:14;;;;;;;4.20;2.10;;;;;;;27.55;51.63;100363.98;129742;1263;114805;-71
2024/04/07 08:39:16;;;;;;;5.90;2.30;;;;;;;27.68;51.01;100363.38;129765;1264;114840;-72
2024/04/07 08:42:20;;;;;;;4.30;2.20;;;;;;;27.71;49.93;100358.21;129793;1264;119472;-72
2024/04/07 08:45:23;;;;;;;4.70;2.10;;;;;;;27.66;49.85;100353.23;129469;1266;114943;-71
2024/04/07 08:48:25;;;;;;;3.90;2.20;;;;;;;27.61;49.37;100355.64;129848;1259;115353;-70
2024/04/07 08:51:27;;;;;;;4.00;2.00;;;;;;;27.50;48.99;100359.70;129786;1272;116040;-72
2024/04/07 08:54:30;;;;;;;4.80;2.00;;;;;;;27.38;48.50;100364.46;129817;1266;114820;-68
2024/04/07 08:57:32;;;;;;;3.10;2.00;;;;;;;27.29;48.86;100362.20;129686;1260;114812;-72
2024/04/07 09:00:36;;;;;;;3.50;1.80;;;;;;;27.27;48.98;100364.76;129765;1264;114907;-71
2024/04/07 09:03:38;;;;;;;3.00;1.70;;;;;;;27.32;49.01;100366.98;129821;1264;114812;-72
2024/04/07 09:06:41;;;;;;;2.70;1.70;;;;;;;27.28;48.28;100367.60;129808;1262;114830;-71
2024/04/07 09:09:43;;;;;;;3.70;2.00;;;;;;;27.27;47.94;100364.61;129760;1260;115201;-72
2024/04/07 09:12:44;;;;;;;4.80;1.60;;;;;;;27.33;48.02;100363.38;129886;1274;114758;-71
2024/04/07 09:15:46;;;;;;;3.30;1.80;;;;;;;27.42;48.11;100362.48;129792;1263;115236;-71
2024/04/07 09:18:48;;;;;;;2.60;1.70;;;;;;;27.46;48.04;100356.13;129858;1264;114687;-70
2024/04/07 09:21:50;;;;;;;3.30;1.40;;;;;;;27.51;48.25;100349.90;129560;1261;119316;-71
2024/04/07 09:24:59;;;;;;;2.80;1.50;;;;;;;27.57;47.75;100356.52;129719;1275;114753;-69
2024/04/07 09:28:03;;;;;;;2.20;1.20;;;;;;;27.50;47.03;100357.34;129606;1267;114782;-69
2024/04/07 09:31:05;;;;;;;3.80;1.70;;;;;;;27.42;47.36;100350.05;129811;1259;114770;-69
2024/04/07 09:34:07;;;;;;;2.90;1.70;;;;;;;27.39;47.61;100346.30;129779;1259;115511;-69
2024/04/07 09:37:09;;;;;;;2.20;1.40;;;;;;;27.37;47.47;100344.69;129758;1263;114717;-69
2024/04/07 09:40:10;;;;;;;2.40;1.40;;;;;;;27.35;47.55;100340.16;129512;1259;119871;-68
2024/04/07 09:43:13;;;;;;;2.80;1.30;;;;;;;27.40;48.00;100337.98;129741;1261;114766;-70
2024/04/07 09:46:22;;;;;;;3.10;1.60;;;;;;;27.46;47.66;100326.48;130042;1263;114816;-71
2024/04/07 09:49:25;;;;;;;3.80;1.20;;;;;;;27.50;47.16;100317.29;129943;1264;114832;-71
2024/04/07 09:52:32;;;;;;;5.90;1.20;;;;;;;27.52;47.25;100310.52;129662;1275;115495;-68
2024/04/07 09:55:36;;;;;;;2.10;1.00;;;;;;;27.55;46.84;100309.15;129575;1261;114830;-69
2024/04/07 09:58:38;;;;;;;11.60;1.80;;;;;;;27.55;46.77;100308.46;129904;1263;120008;-68
2024/04/07 10:01:40;;;;;;;2.90;1.40;;;;;;;27.54;46.59;100310.20;129737;1274;114765;-68
2024/04/07 10:04:42;;;;;;;2.30;1.50;;;;;;;27.55;46.99;100309.50;129795;1273;114948;-68
2024/04/07 10:07:44;;;;;;;3.80;1.70;;;;;;;27.62;47.13;100304.34;129751;1263;114825;-69
2024/04/07 10:10:46;;;;;;;2.20;1.40;;;;;;;27.71;46.75;100302.41;129753;1261;114764;-68
2024/04/07 10:13:48;;;;;;;2.20;1.40;;;;;;;27.77;46.44;100301.39;129793;1261;114748;-69
2024/04/07 10:16:51;;;;;;;2.10;1.00;;;;;;;27.82;46.08;100299.33;129505;1262;115203;-66
2024/04/07 10:19:54;;;;;;;2.20;1.00;;;;;;;27.85;45.77;100295.11;129875;1264;115381;-67
2024/04/07 10:22:56;;;;;;;3.80;1.30;;;;;;;27.86;45.65;100293.83;129823;1261;114817;-66
2024/04/07 10:26:03;;;;;;;2.30;1.20;;;;;;;27.89;45.46;100293.17;129813;1263;114868;-69
2024/04/07 10:29:07;;;;;;;4.50;1.50;;;;;;;27.92;45.51;100286.14;129785;1259;114752;-66
2024/04/07 10:32:19;;;;;;;3.50;1.60;;;;;;;27.98;45.61;100281.05;129953;1259;114749;-69
2024/04/07 10:35:22;;;;;;;2.20;1.40;;;;;;;28.03;45.68;100285.19;129593;1264;114958;-66
2024/04/07 10:38:24;;;;;;;3.20;1.80;;;;;;;28.07;45.53;100287.79;129721;1264;114829;-65
2024/04/07 10:41:28;;;;;;;3.20;1.30;;;;;;;28.11;45.40;100289.39;129817;1262;114748;-64
2024/04/07 10:44:29;;;;;;;2.30;1.30;;;;;;;28.18;45.30;100287.35;129967;1263;115198;-68
2024/04/07 10:47:31;;;;;;;2.70;1.30;;;;;;;28.24;45.27;100284.42;129859;1258;114827;-66
2024/04/07 10:50:33;;;;;;;3.20;1.20;;;;;;;28.31;44.94;100284.88;129754;1264;114793;-67
2024/04/07 10:53:36;;;;;;;2.90;1.00;;;;;;;28.37;44.48;100281.86;129734;1262;114827;-69
2024/04/07 10:56:38;;;;;;;4.80;2.40;;;;;;;28.42;44.32;100278.14;129901;1264;114761;-70
2024/04/07 10:59:40;;;;;;;2.30;1.20;;;;;;;28.47;44.33;100275.79;130002;1259;114827;-64
2024/04/07 11:02:42;;;;;;;3.90;1.40;;;;;;;28.46;44.18;100270.78;129840;1264;114915;-64
2024/04/07 11:05:43;;;;;;;1.70;1.00;;;;;;;28.43;44.01;100269.25;129294;1281;115277;-64
2024/04/07 11:08:45;;;;;;;7.20;1.40;;;;;;;28.40;43.95;100269.48;129371;1265;114797;-63
2024/04/07 11:11:47;;;;;;;10.20;7.30;;;;;;;28.36;44.07;100271.17;129117;1277;114766;-64
2024/04/07 11:14:49;;;;;;;2.40;1.50;;;;;;;28.36;43.96;100271.96;129293;1264;115243;-64
2024/04/07 11:17:51;;;;;;;4.00;1.90;;;;;;;28.34;43.89;100270.94;129473;1261;114767;-64
2024/04/07 11:20:54;;;;;;;2.90;1.50;;;;;;;28.31;43.91;100269.61;129090;1265;119650;-63
2024/04/07 11:23:57;;;;;;;2.70;1.40;;;;;;;28.27;43.77;100270.10;129549;1261;115132;-61
2024/04/07 11:26:59;;;;;;;3.00;1.30;;;;;;;28.20;43.47;100271.02;129757;1264;114744;-63
2024/04/07 11:30:02;;;;;;;2.90;1.00;;;;;;;28.15;43.59;100275.10;129515;1264;115256;-64
2024/04/07 11:33:08;;;;;;;2.60;1.20;;;;;;;28.13;43.54;100273.90;129465;1260;114855;-62
2024/04/07 11:36:10;;;;;;;2.20;1.00;;;;;;;28.11;43.74;100279.61;129334;1260;114910;-62
2024/04/07 11:39:13;;;;;;;2.30;1.10;;;;;;;28.15;43.74;100280.92;129273;1264;114817;-63
2024/04/07 11:42:15;;;;;;;6.20;1.30;;;;;;;28.22;43.21;100289.05;129577;1262;114722;-62
2024/04/07 11:45:18;;;;;;;2.00;0.90;;;;;;;28.26;42.87;100290.39;129478;1262;114842;-64
2024/04/07 11:48:21;;;;;;;3.30;1.00;;;;;;;28.31;42.10;100289.29;129280;1267;114817;-63
2024/04/07 11:51:23;;;;;;;2.10;0.70;;;;;;;28.35;41.22;100288.38;129473;1264;114786;-63
2024/04/07 11:54:25;;;;;;;2.60;1.10;;;;;;;28.39;40.94;100282.73;129542;1264;115111;-63
2024/04/07 11:57:27;;;;;;;2.00;0.70;;;;;;;28.40;40.15;100278.28;129454;1264;114828;-64
2024/04/07 12:00:29;;;;;;;1.70;1.00;;;;;;;28.35;39.71;100280.65;129811;1259;120349;-63
2024/04/07 12:03:31;;;;;;;3.50;1.00;;;;;;;28.38;40.07;100281.92;129338;1263;114898;-64
2024/04/07 12:06:32;;;;;;;2.20;0.80;;;;;;;28.49;39.98;100282.00;129859;1263;114781;-64
2024/04/07 12:09:34;;;;;;;4.00;0.80;;;;;;;28.61;39.86;100280.73;129147;1267;114895;-62
2024/04/07 12:12:36;;;;;;;1.60;0.90;;;;;;;28.69;39.35;100280.27;129424;1276;114761;-64
2024/04/07 12:15:38;;;;;;;1.90;0.60;;;;;;;28.77;39.47;100279.98;129689;1277;114885;-64
2024/04/07 12:18:40;;;;;;;4.40;0.90;;;;;;;28.87;39.14;100277.25;129326;1281;114907;-64
2024/04/07 12:21:41;;;;;;;2.20;0.70;;;;;;;28.96;39.10;100274.96;129291;1264;114820;-66
2024/04/07 12:24:44;;;;;;;1.60;0.80;;;;;;;29.05;38.85;100272.14;129606;1274;114775;-65
2024/04/07 12:27:46;;;;;;;1.60;0.70;;;;;;;29.11;38.44;100269.19;129205;1281;115307;-64
2024/04/07 12:30:52;;;;;;;2.20;1.10;;;;;;;29.17;38.02;100266.64;129701;1263;114736;-65
2024/04/07 12:33:54;;;;;;;1.50;0.80;;;;;;;29.21;38.01;100271.00;129424;1281;114858;-64
2024/04/07 12:36:55;;;;;;;1.30;0.60;;;;;;;29.28;37.86;100270.77;129499;1264;114766;-63
2024/04/07 12:39:57;;;;;;;1.90;0.90;;;;;;;29.34;37.90;100266.88;129503;1259;115510;-64
2024/04/07 12:42:59;;;;;;;3.30;0.80;;;;;;;29.37;37.30;100268.65;129215;1266;119889;-65
2024/04/07 12:46:02;;;;;;;3.40;0.60;;;;;;;29.41;37.04;100265.23;129352;1263;115234;-63
2024/04/07 12:49:04;;;;;;;2.90;0.80;;;;;;;29.46;37.21;100265.08;130058;1281;114906;-61
2024/04/07 12:52:06;;;;;;;1.70;0.50;;;;;;;29.54;37.08;100265.68;129560;1264;114698;-64
2024/04/07 12:55:08;;;;;;;1.50;0.60;;;;;;;29.61;36.76;100266.09;129322;1281;114764;-65
2024/04/07 12:58:10;;;;;;;1.30;0.60;;;;;;;29.69;36.76;100268.05;129498;1275;114829;-64
2024/04/07 13:01:12;;;;;;;3.20;0.70;;;;;;;29.79;36.73;100267.94;129861;1258;114768;-65
2024/04/07 13:04:14;;;;;;;1.70;0.50;;;;;;;29.90;36.33;100263.23;129196;1267;119319;-64
2024/04/07 13:07:16;;;;;;;1.10;0.60;;;;;;;30.00;35.85;100257.87;129500;1281;115222;-66
2024/04/07 13:10:17;;;;;;;2.00;0.50;;;;;;;30.11;35.11;100256.98;129939;1263;114762;-64
2024/04/07 13:13:19;;;;;;;1.40;0.50;;;;;;;30.20;34.33;100253.46;129925;1259;114787;-65
2024/04/07 13:16:21;;;;;;;2.40;0.50;;;;;;;30.29;34.38;100249.58;129287;1263;115118;-65
2024/04/07 13:19:23;;;;;;;1.60;0.50;;;;;;;30.34;34.36;100247.25;129919;1259;115048;-65
2024/04/07 13:22:25;;;;;;;1.30;0.50;;;;;;;30.38;34.52;100246.95;129267;1264;114860;-64
2024/04/07 13:25:27;;;;;;;1.40;0.60;;;;;;;30.40;34.39;100244.38;129319;1264;114745;-64
2024/04/07 13:28:29;;;;;;;2.20;0.90;;;;;;;30.39;34.10;100238.63;129489;1259;114759;-65
2024/04/07 13:31:32;;;;;;;2.90;0.80;;;;;;;30.37;33.96;100236.29;129046;1260;115345;-66
2024/04/07 13:34:34;;;;;;;1.40;0.50;;;;;;;30.33;33.83;100235.98;130010;1263;114752;-64
2024/04/07 13:37:36;;;;;;;1.90;0.60;;;;;;;30.29;33.85;100235.24;129933;1263;114761;-66
2024/04/07 13:40:38;;;;;;;3.50;1.40;;;;;;;30.25;33.89;100230.05;129970;1275;114784;-65
2024/04/07 13:43:39;;;;;;;2.90;1.10;;;;;;;30.21;33.43;100226.67;129790;1264;114794;-65
2024/04/07 13:46:41;;;;;;;2.50;0.70;;;;;;;30.18;33.20;100224.23;129847;1277;115114;-65
2024/04/07 13:49:43;;;;;;;3.10;1.70;;;;;;;30.11;33.20;100221.92;129248;1259;119339;-64